sensor_id;sensor_type;location;lat;lon;timestamp;temperature;humidity
796;DHT22;381;48.770;9.188;2022-12-18T00:02:46;-2.60;95.00
796;DHT22;381;48.770;9.188;2022-12-18T00:07:49;-2.60;95.70
796;DHT22;381;48.770;9.188;2022-12-18T00:12:51;-2.60;96.00
796;DHT22;381;48.770;9.188;2022-12-18T00:17:53;-2.60;96.20
796;DHT22;381;48.770;9.188;2022-12-18T00:22:57;-2.50;95.70
796;DHT22;381;48.770;9.188;2022-12-18T00:27:59;-2.50;95.20
796;DHT22;381;48.770;9.188;2022-12-18T00:33:01;-2.50;96.20
796;DHT22;381;48.770;9.188;2022-12-18T00:38:04;-2.50;96.10
796;DHT22;381;48.770;9.188;2022-12-18T00:43:09;-2.40;96.30
796;DHT22;381;48.770;9.188;2022-12-18T00:48:12;-2.40;95.20
796;DHT22;381;48.770;9.188;2022-12-18T00:53:15;-2.40;94.90
796;DHT22;381;48.770;9.188;2022-12-18T00:58:18;-2.50;95.10
796;DHT22;381;48.770;9.188;2022-12-18T01:03:20;-2.50;94.80
796;DHT22;381;48.770;9.188;2022-12-18T01:08:23;-2.60;95.20
796;DHT22;381;48.770;9.188;2022-12-18T01:13:25;-2.60;94.80
796;DHT22;381;48.770;9.188;2022-12-18T01:18:27;-2.70;94.90
796;DHT22;381;48.770;9.188;2022-12-18T01:23:31;-2.70;95.70
796;DHT22;381;48.770;9.188;2022-12-18T01:28:35;-2.70;96.10
796;DHT22;381;48.770;9.188;2022-12-18T01:33:37;-2.60;96.90
796;DHT22;381;48.770;9.188;2022-12-18T01:38:42;-2.40;96.70
796;DHT22;381;48.770;9.188;2022-12-18T01:43:47;-2.30;96.10
796;DHT22;381;48.770;9.188;2022-12-18T01:48:52;-2.30;95.70
796;DHT22;381;48.770;9.188;2022-12-18T01:53:57;-2.30;96.30
796;DHT22;381;48.770;9.188;2022-12-18T01:59:03;-2.20;96.80
796;DHT22;381;48.770;9.188;2022-12-18T02:04:20;-2.20;96.50
796;DHT22;381;48.770;9.188;2022-12-18T02:09:28;-2.10;96.60
796;DHT22;381;48.770;9.188;2022-12-18T02:14:38;-2.10;96.30
796;DHT22;381;48.770;9.188;2022-12-18T02:19:51;-2.00;95.90
796;DHT22;381;48.770;9.188;2022-12-18T02:25:10;-1.90;96.60
796;DHT22;381;48.770;9.188;2022-12-18T02:30:15;-1.90;96.60
796;DHT22;381;48.770;9.188;2022-12-18T02:35:21;-1.80;96.30
796;DHT22;381;48.770;9.188;2022-12-18T02:40:28;-1.80;95.70
796;DHT22;381;48.770;9.188;2022-12-18T02:45:34;-1.70;95.70
796;DHT22;381;48.770;9.188;2022-12-18T02:50:41;-1.80;95.90
796;DHT22;381;48.770;9.188;2022-12-18T02:55:59;-1.80;96.20
796;DHT22;381;48.770;9.188;2022-12-18T03:01:11;-1.70;95.70
796;DHT22;381;48.770;9.188;2022-12-18T03:06:23;-1.80;95.60
796;DHT22;381;48.770;9.188;2022-12-18T03:11:28;-1.80;95.50
796;DHT22;381;48.770;9.188;2022-12-18T03:16:50;-1.80;95.30
796;DHT22;381;48.770;9.188;2022-12-18T03:21:56;-1.90;94.60
796;DHT22;381;48.770;9.188;2022-12-18T03:27:01;-2.00;94.50
796;DHT22;381;48.770;9.188;2022-12-18T03:32:10;-2.10;94.30
796;DHT22;381;48.770;9.188;2022-12-18T03:37:13;-2.30;94.30
796;DHT22;381;48.770;9.188;2022-12-18T03:42:20;-2.40;93.70
796;DHT22;381;48.770;9.188;2022-12-18T03:47:31;-2.60;93.80
796;DHT22;381;48.770;9.188;2022-12-18T03:52:42;-2.80;93.90
796;DHT22;381;48.770;9.188;2022-12-18T03:57:48;-2.90;93.70
796;DHT22;381;48.770;9.188;2022-12-18T04:02:54;-3.00;93.50
796;DHT22;381;48.770;9.188;2022-12-18T04:08:05;-3.10;93.40
796;DHT22;381;48.770;9.188;2022-12-18T04:13:11;-3.30;93.30
796;DHT22;381;48.770;9.188;2022-12-18T04:18:14;-3.40;93.10
796;DHT22;381;48.770;9.188;2022-12-18T04:23:18;-3.50;93.70
796;DHT22;381;48.770;9.188;2022-12-18T04:28:20;-3.60;93.30
796;DHT22;381;48.770;9.188;2022-12-18T04:33:24;-3.70;93.50
796;DHT22;381;48.770;9.188;2022-12-18T04:38:26;-3.70;93.40
796;DHT22;381;48.770;9.188;2022-12-18T04:43:37;-3.70;93.60
796;DHT22;381;48.770;9.188;2022-12-18T04:48:40;-3.80;92.70
796;DHT22;381;48.770;9.188;2022-12-18T04:53:43;-3.90;92.70
796;DHT22;381;48.770;9.188;2022-12-18T04:58:45;-4.00;92.50
796;DHT22;381;48.770;9.188;2022-12-18T05:03:48;-4.10;92.80
796;DHT22;381;48.770;9.188;2022-12-18T05:08:50;-4.20;93.40
796;DHT22;381;48.770;9.188;2022-12-18T05:13:52;-4.10;94.90
796;DHT22;381;48.770;9.188;2022-12-18T05:18:59;-4.00;93.30
796;DHT22;381;48.770;9.188;2022-12-18T05:24:01;-3.90;93.50
796;DHT22;381;48.770;9.188;2022-12-18T05:29:03;-4.00;93.30
796;DHT22;381;48.770;9.188;2022-12-18T05:34:06;-4.00;92.60
796;DHT22;381;48.770;9.188;2022-12-18T05:39:08;-4.00;92.50
796;DHT22;381;48.770;9.188;2022-12-18T05:44:11;-4.00;91.90
796;DHT22;381;48.770;9.188;2022-12-18T05:49:14;-4.20;92.20
796;DHT22;381;48.770;9.188;2022-12-18T05:54:16;-4.30;92.30
796;DHT22;381;48.770;9.188;2022-12-18T05:59:18;-4.40;92.40
796;DHT22;381;48.770;9.188;2022-12-18T06:04:22;-4.50;92.10
796;DHT22;381;48.770;9.188;2022-12-18T06:09:24;-4.50;91.50
796;DHT22;381;48.770;9.188;2022-12-18T06:14:26;-4.60;91.90
796;DHT22;381;48.770;9.188;2022-12-18T06:19:29;-4.70;92.00
796;DHT22;381;48.770;9.188;2022-12-18T06:24:31;-4.70;91.60
796;DHT22;381;48.770;9.188;2022-12-18T06:29:33;-4.80;92.10
796;DHT22;381;48.770;9.188;2022-12-18T06:34:38;-4.80;92.00
796;DHT22;381;48.770;9.188;2022-12-18T06:39:40;-4.80;93.20
796;DHT22;381;48.770;9.188;2022-12-18T06:44:42;-4.70;93.80
796;DHT22;381;48.770;9.188;2022-12-18T06:49:45;-4.60;92.30
796;DHT22;381;48.770;9.188;2022-12-18T06:54:47;-4.50;93.50
796;DHT22;381;48.770;9.188;2022-12-18T06:59:50;-4.40;93.10
796;DHT22;381;48.770;9.188;2022-12-18T07:04:53;-4.30;92.50
796;DHT22;381;48.770;9.188;2022-12-18T07:09:55;-4.30;93.00
796;DHT22;381;48.770;9.188;2022-12-18T07:14:57;-4.30;92.10
796;DHT22;381;48.770;9.188;2022-12-18T07:20:01;-4.30;92.30
796;DHT22;381;48.770;9.188;2022-12-18T07:25:03;-4.20;92.10
796;DHT22;381;48.770;9.188;2022-12-18T07:30:07;-4.30;91.90
796;DHT22;381;48.770;9.188;2022-12-18T07:35:10;-4.30;91.80
796;DHT22;381;48.770;9.188;2022-12-18T07:40:13;-4.30;93.20
796;DHT22;381;48.770;9.188;2022-12-18T07:45:15;-4.20;93.70
796;DHT22;381;48.770;9.188;2022-12-18T07:50:18;-4.10;94.10
796;DHT22;381;48.770;9.188;2022-12-18T07:55:20;-4.00;93.80
796;DHT22;381;48.770;9.188;2022-12-18T08:00:23;-3.80;93.80
796;DHT22;381;48.770;9.188;2022-12-18T08:05:26;-3.70;93.50
796;DHT22;381;48.770;9.188;2022-12-18T08:10:28;-3.60;94.10
796;DHT22;381;48.770;9.188;2022-12-18T08:15:31;-3.50;93.80
796;DHT22;381;48.770;9.188;2022-12-18T08:20:34;-3.40;93.30
796;DHT22;381;48.770;9.188;2022-12-18T08:25:37;-3.40;93.10
796;DHT22;381;48.770;9.188;2022-12-18T08:30:39;-3.40;92.70
796;DHT22;381;48.770;9.188;2022-12-18T08:35:42;-3.40;93.50
796;DHT22;381;48.770;9.188;2022-12-18T08:40:45;-3.40;93.80
796;DHT22;381;48.770;9.188;2022-12-18T08:45:47;-3.30;94.20
796;DHT22;381;48.770;9.188;2022-12-18T08:50:55;-3.20;94.40
796;DHT22;381;48.770;9.188;2022-12-18T08:55:57;-3.10;94.50
796;DHT22;381;48.770;9.188;2022-12-18T09:01:00;-3.00;94.20
796;DHT22;381;48.770;9.188;2022-12-18T09:06:05;-2.90;93.90
796;DHT22;381;48.770;9.188;2022-12-18T09:11:12;-2.80;94.40
796;DHT22;381;48.770;9.188;2022-12-18T09:16:15;-2.70;95.10
796;DHT22;381;48.770;9.188;2022-12-18T09:21:20;-2.60;95.60
796;DHT22;381;48.770;9.188;2022-12-18T09:26:26;-2.40;95.10
796;DHT22;381;48.770;9.188;2022-12-18T09:31:28;-2.30;94.80
796;DHT22;381;48.770;9.188;2022-12-18T09:36:31;-2.10;94.80
796;DHT22;381;48.770;9.188;2022-12-18T09:41:40;-2.00;94.60
796;DHT22;381;48.770;9.188;2022-12-18T09:46:46;-1.90;94.80
796;DHT22;381;48.770;9.188;2022-12-18T09:51:53;-1.80;95.10
796;DHT22;381;48.770;9.188;2022-12-18T09:56:56;-1.70;94.80
796;DHT22;381;48.770;9.188;2022-12-18T10:01:58;-1.60;94.90
796;DHT22;381;48.770;9.188;2022-12-18T10:07:05;-1.60;95.20
796;DHT22;381;48.770;9.188;2022-12-18T10:12:16;-1.50;94.70
796;DHT22;381;48.770;9.188;2022-12-18T10:17:26;-1.40;95.00
796;DHT22;381;48.770;9.188;2022-12-18T10:22:42;-1.50;95.10
796;DHT22;381;48.770;9.188;2022-12-18T10:27:46;-1.40;95.80
796;DHT22;381;48.770;9.188;2022-12-18T10:32:49;-1.30;96.20
796;DHT22;381;48.770;9.188;2022-12-18T10:38:03;-1.20;96.10
796;DHT22;381;48.770;9.188;2022-12-18T10:43:11;-1.10;95.60
796;DHT22;381;48.770;9.188;2022-12-18T10:48:21;-1.10;95.90
796;DHT22;381;48.770;9.188;2022-12-18T10:53:27;-1.10;95.90
796;DHT22;381;48.770;9.188;2022-12-18T10:58:32;-1.10;96.00
796;DHT22;381;48.770;9.188;2022-12-18T11:03:35;-1.00;96.00
796;DHT22;381;48.770;9.188;2022-12-18T11:08:39;-0.80;95.60
796;DHT22;381;48.770;9.188;2022-12-18T11:13:51;-0.90;96.30
796;DHT22;381;48.770;9.188;2022-12-18T11:19:17;-0.80;96.40
796;DHT22;381;48.770;9.188;2022-12-18T11:24:29;-0.60;96.40
796;DHT22;381;48.770;9.188;2022-12-18T11:29:34;-0.60;96.60
796;DHT22;381;48.770;9.188;2022-12-18T11:34:37;-0.50;97.00
796;DHT22;381;48.770;9.188;2022-12-18T11:39:44;-0.40;96.70
796;DHT22;381;48.770;9.188;2022-12-18T11:44:50;-0.30;96.60
796;DHT22;381;48.770;9.188;2022-12-18T11:49:55;-0.20;96.30
796;DHT22;381;48.770;9.188;2022-12-18T11:55:04;-0.20;96.00
796;DHT22;381;48.770;9.188;2022-12-18T12:00:13;-0.20;96.50
796;DHT22;381;48.770;9.188;2022-12-18T12:05:43;-0.10;96.50
796;DHT22;381;48.770;9.188;2022-12-18T12:10:57;0.00;96.40
796;DHT22;381;48.770;9.188;2022-12-18T12:16:10;0.10;95.90
796;DHT22;381;48.770;9.188;2022-12-18T12:21:19;0.10;96.30
796;DHT22;381;48.770;9.188;2022-12-18T12:26:33;0.10;96.40
796;DHT22;381;48.770;9.188;2022-12-18T12:31:47;0.20;96.60
796;DHT22;381;48.770;9.188;2022-12-18T12:37:05;0.30;95.80
796;DHT22;381;48.770;9.188;2022-12-18T12:42:16;0.30;96.00
796;DHT22;381;48.770;9.188;2022-12-18T12:47:40;0.40;96.50
796;DHT22;381;48.770;9.188;2022-12-18T12:52:45;0.40;96.60
796;DHT22;381;48.770;9.188;2022-12-18T12:57:57;0.50;95.60
796;DHT22;381;48.770;9.188;2022-12-18T13:03:14;0.50;96.30
796;DHT22;381;48.770;9.188;2022-12-18T13:08:24;0.60;96.50
796;DHT22;381;48.770;9.188;2022-12-18T13:13:48;0.60;96.90
796;DHT22;381;48.770;9.188;2022-12-18T13:18:50;0.70;97.10
796;DHT22;381;48.770;9.188;2022-12-18T13:23:53;0.80;96.70
796;DHT22;381;48.770;9.188;2022-12-18T13:28:58;0.90;97.00
796;DHT22;381;48.770;9.188;2022-12-18T13:34:15;0.90;97.20
796;DHT22;381;48.770;9.188;2022-12-18T13:39:31;1.00;97.00
796;DHT22;381;48.770;9.188;2022-12-18T13:44:36;1.10;97.30
796;DHT22;381;48.770;9.188;2022-12-18T13:49:41;1.10;97.00
796;DHT22;381;48.770;9.188;2022-12-18T13:54:48;1.20;97.40
796;DHT22;381;48.770;9.188;2022-12-18T13:59:53;1.30;97.40
796;DHT22;381;48.770;9.188;2022-12-18T14:04:56;1.30;97.60
796;DHT22;381;48.770;9.188;2022-12-18T14:09:59;1.30;97.40
796;DHT22;381;48.770;9.188;2022-12-18T14:15:07;1.30;97.50
796;DHT22;381;48.770;9.188;2022-12-18T14:20:17;1.30;97.40
796;DHT22;381;48.770;9.188;2022-12-18T14:25:21;1.30;97.50
796;DHT22;381;48.770;9.188;2022-12-18T14:30:27;1.30;98.00
796;DHT22;381;48.770;9.188;2022-12-18T14:35:29;1.30;97.80
796;DHT22;381;48.770;9.188;2022-12-18T14:40:31;1.30;97.90
796;DHT22;381;48.770;9.188;2022-12-18T14:45:36;1.30;98.20
796;DHT22;381;48.770;9.188;2022-12-18T14:50:39;1.30;98.40
796;DHT22;381;48.770;9.188;2022-12-18T14:55:45;1.30;98.30
796;DHT22;381;48.770;9.188;2022-12-18T15:00:49;1.20;98.10
796;DHT22;381;48.770;9.188;2022-12-18T15:05:52;1.20;98.20
796;DHT22;381;48.770;9.188;2022-12-18T15:10:54;1.10;98.00
796;DHT22;381;48.770;9.188;2022-12-18T15:16:01;1.10;98.10
796;DHT22;381;48.770;9.188;2022-12-18T15:21:09;1.00;97.80
796;DHT22;381;48.770;9.188;2022-12-18T15:26:13;0.90;97.70
796;DHT22;381;48.770;9.188;2022-12-18T15:31:28;0.70;97.90
796;DHT22;381;48.770;9.188;2022-12-18T15:36:31;0.60;97.90
796;DHT22;381;48.770;9.188;2022-12-18T15:41:37;0.50;97.90
796;DHT22;381;48.770;9.188;2022-12-18T15:46:40;0.50;97.60
796;DHT22;381;48.770;9.188;2022-12-18T15:51:42;0.30;98.00
796;DHT22;381;48.770;9.188;2022-12-18T15:56:44;0.20;98.50
796;DHT22;381;48.770;9.188;2022-12-18T16:02:14;0.20;98.40
796;DHT22;381;48.770;9.188;2022-12-18T16:07:18;0.20;98.00
796;DHT22;381;48.770;9.188;2022-12-18T16:12:22;0.20;98.20
796;DHT22;381;48.770;9.188;2022-12-18T16:17:26;0.10;98.10
796;DHT22;381;48.770;9.188;2022-12-18T16:22:31;0.10;98.10
796;DHT22;381;48.770;9.188;2022-12-18T16:27:33;0.00;97.90
796;DHT22;381;48.770;9.188;2022-12-18T16:32:36;0.00;98.10
796;DHT22;381;48.770;9.188;2022-12-18T16:37:39;0.00;98.20
796;DHT22;381;48.770;9.188;2022-12-18T16:42:42;-0.10;98.60
796;DHT22;381;48.770;9.188;2022-12-18T16:47:47;0.00;98.60
796;DHT22;381;48.770;9.188;2022-12-18T16:52:49;0.00;98.40
796;DHT22;381;48.770;9.188;2022-12-18T16:57:52;0.00;98.40
796;DHT22;381;48.770;9.188;2022-12-18T17:02:55;0.00;98.40
796;DHT22;381;48.770;9.188;2022-12-18T17:07:57;0.00;98.40
796;DHT22;381;48.770;9.188;2022-12-18T17:12:59;0.00;98.20
796;DHT22;381;48.770;9.188;2022-12-18T17:18:06;0.00;99.20
796;DHT22;381;48.770;9.188;2022-12-18T17:23:11;0.10;99.30
796;DHT22;381;48.770;9.188;2022-12-18T17:28:18;0.30;99.20
796;DHT22;381;48.770;9.188;2022-12-18T17:33:23;0.40;99.40
796;DHT22;381;48.770;9.188;2022-12-18T17:38:25;0.50;98.60
796;DHT22;381;48.770;9.188;2022-12-18T17:43:28;0.60;98.40
796;DHT22;381;48.770;9.188;2022-12-18T17:48:31;0.60;97.90
796;DHT22;381;48.770;9.188;2022-12-18T17:53:34;0.70;97.20
796;DHT22;381;48.770;9.188;2022-12-18T17:58:36;0.60;97.10
796;DHT22;381;48.770;9.188;2022-12-18T18:03:40;0.60;96.50
796;DHT22;381;48.770;9.188;2022-12-18T18:08:45;0.40;97.10
796;DHT22;381;48.770;9.188;2022-12-18T18:13:48;0.40;96.90
796;DHT22;381;48.770;9.188;2022-12-18T18:19:05;0.30;97.00
796;DHT22;381;48.770;9.188;2022-12-18T18:24:09;0.30;96.90
796;DHT22;381;48.770;9.188;2022-12-18T18:29:13;0.40;96.70
796;DHT22;381;48.770;9.188;2022-12-18T18:34:20;0.40;97.00
796;DHT22;381;48.770;9.188;2022-12-18T18:39:22;0.40;96.60
796;DHT22;381;48.770;9.188;2022-12-18T18:44:24;0.40;96.60
796;DHT22;381;48.770;9.188;2022-12-18T18:49:28;0.40;96.60
796;DHT22;381;48.770;9.188;2022-12-18T18:54:31;0.40;96.40
796;DHT22;381;48.770;9.188;2022-12-18T18:59:33;0.30;96.70
796;DHT22;381;48.770;9.188;2022-12-18T19:04:37;0.30;97.30
796;DHT22;381;48.770;9.188;2022-12-18T19:09:39;0.40;98.10
796;DHT22;381;48.770;9.188;2022-12-18T19:14:41;0.50;97.80
796;DHT22;381;48.770;9.188;2022-12-18T19:19:45;0.60;98.30
796;DHT22;381;48.770;9.188;2022-12-18T19:24:47;0.70;98.10
796;DHT22;381;48.770;9.188;2022-12-18T19:29:49;0.80;97.80
796;DHT22;381;48.770;9.188;2022-12-18T19:34:53;0.80;97.90
796;DHT22;381;48.770;9.188;2022-12-18T19:39:55;0.90;97.70
796;DHT22;381;48.770;9.188;2022-12-18T19:44:57;0.90;98.70
796;DHT22;381;48.770;9.188;2022-12-18T19:50:01;0.90;98.00
796;DHT22;381;48.770;9.188;2022-12-18T19:55:03;1.00;97.70
796;DHT22;381;48.770;9.188;2022-12-18T20:00:07;1.00;98.30
796;DHT22;381;48.770;9.188;2022-12-18T20:05:14;1.00;98.70
796;DHT22;381;48.770;9.188;2022-12-18T20:10:17;1.10;99.20
796;DHT22;381;48.770;9.188;2022-12-18T20:15:19;1.20;99.30
796;DHT22;381;48.770;9.188;2022-12-18T20:20:23;1.30;98.60
796;DHT22;381;48.770;9.188;2022-12-18T20:25:25;1.40;98.80
796;DHT22;381;48.770;9.188;2022-12-18T20:30:27;1.40;98.60
796;DHT22;381;48.770;9.188;2022-12-18T20:35:32;1.40;98.10
796;DHT22;381;48.770;9.188;2022-12-18T20:40:34;1.40;98.70
796;DHT22;381;48.770;9.188;2022-12-18T20:45:36;1.40;98.50
796;DHT22;381;48.770;9.188;2022-12-18T20:50:40;1.40;98.40
796;DHT22;381;48.770;9.188;2022-12-18T20:55:43;1.40;98.20
796;DHT22;381;48.770;9.188;2022-12-18T21:00:45;1.40;98.20
796;DHT22;381;48.770;9.188;2022-12-18T21:05:48;1.40;98.10
796;DHT22;381;48.770;9.188;2022-12-18T21:10:50;1.40;97.90
796;DHT22;381;48.770;9.188;2022-12-18T21:15:53;1.30;98.20
796;DHT22;381;48.770;9.188;2022-12-18T21:20:56;1.30;99.40
796;DHT22;381;48.770;9.188;2022-12-18T21:26:14;1.30;99.00
796;DHT22;381;48.770;9.188;2022-12-18T21:31:16;1.40;99.00
796;DHT22;381;48.770;9.188;2022-12-18T21:36:19;1.40;99.00
796;DHT22;381;48.770;9.188;2022-12-18T21:41:22;1.30;98.90
796;DHT22;381;48.770;9.188;2022-12-18T21:46:44;1.30;98.70
796;DHT22;381;48.770;9.188;2022-12-18T21:51:49;1.20;98.90
796;DHT22;381;48.770;9.188;2022-12-18T21:56:53;1.20;99.30
796;DHT22;381;48.770;9.188;2022-12-18T22:01:56;1.20;99.40
796;DHT22;381;48.770;9.188;2022-12-18T22:07:02;1.20;99.30
796;DHT22;381;48.770;9.188;2022-12-18T22:12:06;1.20;99.20
796;DHT22;381;48.770;9.188;2022-12-18T22:17:08;1.20;99.50
796;DHT22;381;48.770;9.188;2022-12-18T22:22:12;1.20;99.40
796;DHT22;381;48.770;9.188;2022-12-18T22:27:14;1.20;99.50
796;DHT22;381;48.770;9.188;2022-12-18T22:32:16;1.30;99.40
796;DHT22;381;48.770;9.188;2022-12-18T22:37:23;1.30;99.50
796;DHT22;381;48.770;9.188;2022-12-18T22:42:25;1.30;99.40
796;DHT22;381;48.770;9.188;2022-12-18T22:47:27;1.30;99.30
796;DHT22;381;48.770;9.188;2022-12-18T22:52:30;1.30;99.50
796;DHT22;381;48.770;9.188;2022-12-18T22:57:32;1.30;99.50
796;DHT22;381;48.770;9.188;2022-12-18T23:02:34;1.30;99.50
796;DHT22;381;48.770;9.188;2022-12-18T23:07:38;1.30;99.80
796;DHT22;381;48.770;9.188;2022-12-18T23:12:40;1.40;99.70
796;DHT22;381;48.770;9.188;2022-12-18T23:17:42;1.40;99.70
796;DHT22;381;48.770;9.188;2022-12-18T23:22:46;1.40;99.90
796;DHT22;381;48.770;9.188;2022-12-18T23:27:48;1.40;99.90
796;DHT22;381;48.770;9.188;2022-12-18T23:32:50;1.50;99.90
796;DHT22;381;48.770;9.188;2022-12-18T23:37:53;1.50;99.90
796;DHT22;381;48.770;9.188;2022-12-18T23:42:55;1.40;99.90
796;DHT22;381;48.770;9.188;2022-12-18T23:47:57;1.40;99.90
796;DHT22;381;48.770;9.188;2022-12-18T23:53:01;1.50;99.90
796;DHT22;381;48.770;9.188;2022-12-18T23:58:03;1.50;99.90
